createdAt,value
2017-04-02T00:00:57.729Z,99.90
2017-04-02T00:02:03.928Z,99.90
2017-04-02T00:03:10.155Z,99.90
2017-04-02T00:04:16.456Z,99.90
2017-04-02T00:05:22.627Z,99.90
2017-04-02T00:06:28.876Z,99.90
2017-04-02T00:07:34.988Z,99.90
2017-04-02T00:08:41.189Z,99.90
2017-04-02T00:09:47.204Z,99.90
2017-04-02T00:10:53.206Z,99.90
2017-04-02T00:11:59.112Z,99.90
2017-04-02T00:13:05.100Z,99.90
2017-04-02T00:14:11.175Z,99.90
2017-04-02T00:15:17.361Z,99.90
2017-04-02T00:16:23.397Z,99.90
2017-04-02T00:17:30.260Z,99.90
2017-04-02T00:18:36.572Z,99.90
2017-04-02T00:19:42.589Z,99.90
2017-04-02T00:20:48.659Z,99.90
2017-04-02T00:21:54.727Z,99.90
2017-04-02T00:23:00.903Z,99.90
2017-04-02T00:24:06.977Z,99.90
2017-04-02T00:25:12.936Z,99.90
2017-04-02T00:26:19.028Z,99.90
2017-04-02T00:27:25.214Z,99.90
2017-04-02T00:28:31.327Z,99.90
2017-04-02T00:29:37.415Z,99.90
2017-04-02T00:30:43.369Z,99.90
2017-04-02T00:31:49.478Z,99.90
2017-04-02T00:32:56.322Z,99.90
2017-04-02T00:34:02.588Z,99.90
2017-04-02T00:35:08.685Z,99.90
2017-04-02T00:36:14.732Z,99.90
2017-04-02T00:37:20.708Z,99.90
2017-04-02T00:38:26.821Z,99.90
2017-04-02T00:39:32.993Z,99.90
2017-04-02T00:40:39.632Z,99.90
2017-04-02T00:41:45.712Z,99.90
2017-04-02T00:42:52.612Z,99.90
2017-04-02T00:43:58.659Z,99.90
2017-04-02T00:45:04.644Z,99.90
2017-04-02T00:46:10.533Z,99.90
2017-04-02T00:47:16.663Z,99.90
2017-04-02T00:48:22.857Z,99.90
2017-04-02T00:49:28.763Z,99.90
2017-04-02T00:50:35.027Z,99.90
2017-04-02T00:51:40.980Z,99.90
2017-04-02T00:52:47.086Z,99.90
2017-04-02T00:53:53.112Z,99.90
2017-04-02T00:54:59.191Z,99.90
2017-04-02T00:56:05.172Z,99.90
2017-04-02T00:57:11.157Z,99.90
2017-04-02T00:58:17.179Z,99.90
2017-04-02T00:59:23.230Z,99.90
2017-04-02T01:00:29.236Z,99.90
2017-04-02T01:01:35.304Z,99.90
2017-04-02T01:02:41.236Z,99.90
2017-04-02T01:03:47.236Z,99.90
2017-04-02T01:04:53.152Z,99.90
2017-04-02T01:05:59.181Z,99.90
2017-04-02T01:07:05.316Z,99.90
2017-04-02T01:08:11.410Z,99.90
2017-04-02T01:09:17.416Z,99.90
2017-04-02T01:10:24.155Z,99.90
2017-04-02T01:11:30.047Z,99.90
2017-04-02T01:12:36.008Z,99.90
2017-04-02T01:13:42.016Z,99.90
2017-04-02T01:14:48.113Z,99.90
2017-04-02T01:15:54.898Z,99.90
2017-04-02T01:17:00.883Z,99.90
2017-04-02T01:18:06.772Z,99.90
2017-04-02T01:19:12.791Z,99.90
2017-04-02T01:20:18.848Z,99.90
2017-04-02T01:21:24.798Z,99.90
2017-04-02T01:22:30.906Z,99.90
2017-04-02T01:23:37.076Z,99.90
2017-04-02T01:24:43.135Z,99.90
2017-04-02T01:25:49.306Z,99.90
2017-04-02T01:26:55.257Z,99.90
2017-04-02T01:28:01.556Z,99.90
2017-04-02T01:29:07.525Z,99.90
2017-04-02T01:30:13.598Z,99.90
2017-04-02T01:31:19.486Z,99.90
2017-04-02T01:32:25.569Z,99.90
2017-04-02T01:33:31.792Z,99.90
2017-04-02T01:34:37.890Z,99.90
2017-04-02T01:35:43.908Z,99.90
2017-04-02T01:36:49.855Z,99.90
2017-04-02T01:37:55.929Z,99.90
2017-04-02T01:39:01.948Z,99.90
2017-04-02T01:40:08.029Z,99.90
2017-04-02T01:41:14.068Z,99.90
2017-04-02T01:42:20.220Z,99.90
2017-04-02T01:43:26.250Z,99.90
2017-04-02T01:44:32.590Z,99.90
2017-04-02T01:45:38.522Z,99.90
2017-04-02T01:46:44.620Z,99.90
2017-04-02T01:47:50.772Z,99.90
2017-04-02T01:48:56.812Z,99.90
2017-04-02T01:50:03.404Z,99.90
2017-04-02T01:51:09.533Z,99.90
2017-04-02T01:52:15.560Z,99.90
2017-04-02T01:53:21.712Z,99.90
2017-04-02T01:54:27.817Z,99.90
2017-04-02T01:55:33.870Z,99.90
2017-04-02T01:56:39.845Z,99.90
2017-04-02T01:57:45.972Z,99.90
2017-04-02T01:58:52.077Z,99.90
2017-04-02T01:59:58.185Z,99.90
2017-04-02T02:01:04.258Z,99.90
2017-04-02T02:02:10.229Z,99.90
2017-04-02T02:03:16.310Z,99.90
2017-04-02T02:04:22.380Z,99.90
2017-04-02T02:05:28.344Z,99.90
2017-04-02T02:06:34.281Z,99.90
2017-04-02T02:07:40.330Z,99.90
2017-04-02T02:08:46.389Z,99.90
2017-04-02T02:09:52.394Z,99.90
2017-04-02T02:10:58.489Z,99.90
2017-04-02T02:12:04.652Z,99.90
2017-04-02T02:13:11.354Z,99.90
2017-04-02T02:14:17.169Z,99.90
2017-04-02T02:15:23.207Z,99.90
2017-04-02T02:16:29.336Z,99.90
2017-04-02T02:17:35.283Z,99.90
2017-04-02T02:18:41.255Z,99.90
2017-04-02T02:19:47.672Z,99.90
2017-04-02T02:20:53.652Z,99.90
2017-04-02T02:21:59.678Z,99.90
2017-04-02T02:23:05.763Z,99.90
2017-04-02T02:24:11.660Z,99.90
2017-04-02T02:25:17.802Z,99.90
2017-04-02T02:26:23.813Z,99.90
2017-04-02T02:27:29.952Z,99.90
2017-04-02T02:28:35.901Z,99.90
2017-04-02T02:29:42.032Z,99.90
2017-04-02T02:30:48.341Z,99.90
2017-04-02T02:31:54.394Z,99.90
2017-04-02T02:33:00.452Z,99.90
2017-04-02T02:34:06.529Z,99.90
2017-04-02T02:35:12.686Z,99.90
2017-04-02T02:36:18.892Z,99.90
2017-04-02T02:37:25.024Z,99.90
2017-04-02T02:38:31.046Z,99.90
2017-04-02T02:39:37.095Z,99.90
2017-04-02T02:40:43.044Z,99.90
2017-04-02T02:41:49.116Z,99.90
2017-04-02T02:42:55.196Z,99.90
2017-04-02T02:44:01.113Z,99.90
2017-04-02T02:45:07.142Z,99.90
2017-04-02T02:46:13.284Z,99.90
2017-04-02T02:47:19.330Z,99.90
2017-04-02T02:48:25.863Z,99.90
2017-04-02T02:49:31.873Z,99.90
2017-04-02T02:50:37.917Z,99.90
2017-04-02T02:51:44.076Z,99.90
2017-04-02T02:52:50.036Z,99.90
2017-04-02T02:53:56.152Z,99.90
2017-04-02T02:55:02.429Z,99.90
2017-04-02T02:56:08.465Z,99.90
2017-04-02T02:57:14.682Z,99.90
2017-04-02T02:58:20.675Z,99.90
2017-04-02T02:59:26.815Z,99.90
2017-04-02T03:00:33.003Z,99.90
2017-04-02T03:01:39.088Z,99.90
2017-04-02T03:02:45.151Z,99.90
2017-04-02T03:03:51.122Z,99.90
2017-04-02T03:04:57.320Z,99.90
2017-04-02T03:06:03.378Z,99.90
2017-04-02T03:07:09.529Z,99.90
2017-04-02T03:08:15.510Z,99.90
2017-04-02T03:09:21.608Z,99.90
2017-04-02T03:10:27.690Z,99.90
2017-04-02T03:11:33.717Z,99.90
2017-04-02T03:12:39.886Z,99.90
2017-04-02T03:13:45.887Z,99.90
2017-04-02T03:14:52.067Z,99.90
2017-04-02T03:15:58.205Z,99.90
2017-04-02T03:17:04.179Z,99.90
2017-04-02T03:18:10.272Z,99.90
2017-04-02T03:19:16.384Z,99.90
2017-04-02T03:20:22.488Z,99.90
2017-04-02T03:21:28.420Z,99.90
2017-04-02T03:22:34.336Z,99.90
2017-04-02T03:23:40.503Z,99.90
2017-04-02T03:24:46.553Z,99.90
2017-04-02T03:25:52.626Z,99.90
2017-04-02T03:26:58.752Z,99.90
2017-04-02T03:28:04.773Z,99.90
2017-04-02T03:29:10.981Z,99.90
2017-04-02T03:30:16.997Z,99.90
2017-04-02T03:31:23.963Z,99.90
2017-04-02T03:32:30.132Z,99.90
2017-04-02T03:33:36.027Z,99.90
2017-04-02T03:34:42.152Z,99.90
2017-04-02T03:35:48.215Z,99.90
2017-04-02T03:36:54.161Z,99.90
2017-04-02T03:38:00.281Z,99.90
2017-04-02T03:39:06.295Z,99.90
2017-04-02T03:40:12.644Z,99.90
2017-04-02T03:41:18.664Z,99.90
2017-04-02T03:42:24.761Z,99.90
2017-04-02T03:43:30.882Z,99.90
2017-04-02T03:44:36.921Z,99.90
2017-04-02T03:45:43.132Z,99.90
2017-04-02T03:46:49.018Z,99.90
2017-04-02T03:47:55.077Z,99.90
2017-04-02T03:49:01.000Z,99.90
2017-04-02T03:50:07.112Z,99.90
2017-04-02T03:51:13.410Z,99.90
2017-04-02T03:52:20.656Z,99.90
2017-04-02T03:53:26.596Z,99.90
2017-04-02T03:54:32.668Z,99.90
2017-04-02T03:55:38.773Z,99.90
2017-04-02T03:56:44.872Z,99.90
2017-04-02T03:57:50.843Z,99.90
2017-04-02T03:58:56.981Z,99.90
2017-04-02T04:00:03.100Z,99.90
2017-04-02T04:01:09.116Z,99.90
2017-04-02T04:02:15.242Z,99.90
2017-04-02T04:03:21.352Z,99.90
2017-04-02T04:04:27.533Z,99.90
2017-04-02T04:05:33.623Z,99.90
2017-04-02T04:06:40.420Z,99.90
2017-04-02T04:07:46.320Z,99.90
2017-04-02T04:08:52.389Z,99.90
2017-04-02T04:09:58.501Z,99.90
2017-04-02T04:11:04.487Z,99.90
2017-04-02T04:12:10.596Z,99.90
2017-04-02T04:13:16.596Z,99.90
2017-04-02T04:14:22.586Z,99.90
2017-04-02T04:15:28.752Z,99.90
2017-04-02T04:16:38.503Z,99.90
2017-04-02T04:17:44.556Z,99.90
2017-04-02T04:18:50.717Z,99.90
2017-04-02T04:19:56.652Z,99.90
2017-04-02T04:21:02.964Z,99.90
2017-04-02T04:22:08.943Z,99.90
2017-04-02T04:23:15.004Z,99.90
2017-04-02T04:24:21.019Z,99.90
2017-04-02T04:25:27.125Z,99.90
2017-04-02T04:26:33.540Z,99.90
2017-04-02T04:27:39.675Z,99.90
2017-04-02T04:28:45.660Z,99.90
2017-04-02T04:29:51.675Z,99.90
2017-04-02T04:30:57.801Z,99.90
2017-04-02T04:32:03.908Z,99.90
2017-04-02T04:33:09.736Z,99.90
2017-04-02T04:34:15.833Z,99.90
2017-04-02T04:35:21.952Z,99.90
2017-04-02T04:36:27.957Z,99.90
2017-04-02T04:37:34.246Z,99.90
2017-04-02T04:38:40.132Z,99.90
2017-04-02T04:39:46.192Z,99.90
2017-04-02T04:40:53.072Z,99.90
2017-04-02T04:41:58.904Z,99.90
2017-04-02T04:43:04.953Z,99.90
2017-04-02T04:44:11.023Z,99.90
2017-04-02T04:45:17.089Z,99.90
2017-04-02T04:46:23.251Z,99.90
2017-04-02T04:47:29.391Z,99.90
2017-04-02T04:48:35.396Z,99.90
2017-04-02T04:49:41.413Z,99.90
2017-04-02T04:50:47.442Z,99.90
2017-04-02T04:51:54.444Z,99.90
2017-04-02T04:53:00.477Z,99.90
2017-04-02T04:54:07.262Z,99.90
2017-04-02T04:55:14.124Z,99.90
2017-04-02T04:56:20.120Z,99.90
2017-04-02T04:57:26.019Z,99.90
2017-04-02T04:58:32.044Z,99.90
2017-04-02T04:59:38.015Z,99.90
2017-04-02T05:00:44.002Z,99.90
2017-04-02T05:01:50.080Z,99.90
2017-04-02T05:02:56.004Z,99.90
2017-04-02T05:04:02.102Z,99.90
2017-04-02T05:05:08.905Z,99.90
2017-04-02T05:06:15.516Z,99.90
2017-04-02T05:07:23.324Z,99.90
2017-04-02T05:08:30.348Z,99.90
2017-04-02T05:09:36.719Z,99.90
2017-04-02T05:10:44.633Z,99.90
2017-04-02T05:11:50.813Z,99.90
2017-04-02T05:12:56.772Z,99.90
2017-04-02T05:14:02.994Z,99.90
2017-04-02T05:15:09.268Z,99.90
2017-04-02T05:16:15.876Z,99.90
2017-04-02T05:17:21.976Z,99.90
2017-04-02T05:18:29.382Z,99.90
2017-04-02T05:19:35.478Z,99.90
2017-04-02T05:20:41.857Z,99.90
2017-04-02T05:21:47.764Z,99.90
2017-04-02T05:22:55.471Z,99.90
2017-04-02T05:24:01.752Z,99.90
2017-04-02T05:25:07.705Z,99.90
2017-04-02T05:26:14.822Z,99.90
2017-04-02T05:27:20.889Z,99.90
2017-04-02T05:28:27.297Z,99.90
2017-04-02T05:29:33.296Z,99.90
2017-04-02T05:30:39.236Z,99.90
2017-04-02T05:31:46.237Z,99.90
2017-04-02T05:32:52.325Z,99.90
2017-04-02T05:34:01.742Z,99.90
2017-04-02T05:35:08.313Z,99.90
2017-04-02T05:36:14.339Z,99.90
2017-04-02T05:37:20.344Z,99.90
2017-04-02T05:38:27.359Z,99.90
2017-04-02T05:39:34.296Z,99.90
2017-04-02T05:40:40.126Z,99.90
2017-04-02T05:41:46.244Z,99.90
2017-04-02T05:42:52.372Z,99.90
2017-04-02T05:43:58.886Z,99.90
2017-04-02T05:45:04.801Z,99.90
2017-04-02T05:46:11.700Z,99.90
2017-04-02T05:47:18.857Z,99.90
2017-04-02T05:48:26.253Z,99.90
2017-04-02T05:49:32.484Z,99.90
2017-04-02T05:50:38.324Z,99.90
2017-04-02T05:51:44.408Z,99.90
2017-04-02T05:52:50.224Z,99.90
2017-04-02T05:53:56.324Z,99.90
2017-04-02T05:55:02.440Z,99.90
2017-04-02T05:56:09.131Z,99.90
2017-04-02T05:57:15.188Z,99.90
2017-04-02T05:58:21.180Z,99.90
2017-04-02T05:59:27.244Z,99.90
2017-04-02T06:00:33.203Z,99.90
2017-04-02T06:01:41.186Z,99.90
2017-04-02T06:02:47.252Z,99.90
2017-04-02T06:03:53.204Z,99.90
2017-04-02T06:04:59.429Z,99.90
2017-04-02T06:06:05.846Z,99.90
2017-04-02T06:07:13.945Z,99.90
2017-04-02T06:08:20.173Z,99.90
2017-04-02T06:09:26.216Z,99.90
2017-04-02T06:10:32.348Z,99.90
2017-04-02T06:11:39.895Z,99.90
2017-04-02T06:12:46.418Z,99.90
2017-04-02T06:13:52.404Z,99.90
2017-04-02T06:15:00.137Z,99.90
2017-04-02T06:16:06.340Z,99.90
2017-04-02T06:17:12.340Z,99.90
2017-04-02T06:18:18.415Z,99.90
2017-04-02T06:19:24.321Z,99.90
2017-04-02T06:20:31.455Z,99.90
2017-04-02T06:21:37.930Z,99.90
2017-04-02T06:22:44.988Z,99.90
2017-04-02T06:23:51.374Z,99.90
2017-04-02T06:24:57.319Z,99.90
2017-04-02T06:26:04.436Z,99.90
2017-04-02T06:27:10.696Z,99.90
2017-04-02T06:28:16.636Z,99.90
2017-04-02T06:29:22.849Z,99.90
2017-04-02T06:30:28.858Z,99.90
2017-04-02T06:31:36.337Z,99.90
2017-04-02T06:32:42.508Z,99.90
2017-04-02T06:33:48.552Z,99.90
2017-04-02T06:34:54.688Z,99.90
2017-04-02T06:36:00.725Z,99.90
2017-04-02T06:37:06.646Z,99.90
2017-04-02T06:38:13.241Z,99.90
2017-04-02T06:39:19.144Z,99.90
2017-04-02T06:40:25.519Z,99.90
2017-04-02T06:41:31.712Z,99.90
2017-04-02T06:42:38.048Z,99.90
2017-04-02T06:45:23.791Z,99.90
2017-04-02T06:46:31.662Z,99.90
2017-04-02T06:47:37.660Z,99.90
2017-04-02T06:48:43.608Z,99.90
2017-04-02T06:49:49.753Z,99.90
2017-04-02T06:52:37.668Z,99.90
2017-04-02T06:55:18.309Z,99.90
2017-04-02T06:56:25.191Z,99.90
2017-04-02T06:57:31.349Z,99.90
2017-04-02T06:58:37.484Z,99.90
2017-04-02T06:59:43.473Z,99.90
2017-04-02T07:00:49.762Z,99.90
2017-04-02T07:01:56.387Z,99.90
2017-04-02T07:03:02.474Z,99.90
2017-04-02T07:04:14.886Z,99.90
2017-04-02T07:05:21.896Z,99.90
2017-04-02T07:06:28.245Z,99.90
2017-04-02T07:07:34.339Z,99.90
2017-04-02T07:08:40.432Z,99.90
2017-04-02T07:09:46.584Z,99.90
2017-04-02T07:10:52.552Z,99.90
2017-04-02T07:11:58.658Z,99.90
2017-04-02T07:13:04.794Z,99.90
2017-04-02T07:14:10.910Z,99.90
2017-04-02T07:15:17.143Z,99.90
2017-04-02T07:16:23.045Z,99.90
2017-04-02T07:17:29.087Z,99.90
2017-04-02T07:20:25.434Z,99.90
2017-04-02T07:21:31.388Z,99.90
2017-04-02T07:22:37.330Z,99.90
2017-04-02T07:25:23.947Z,99.90
2017-04-02T07:26:29.996Z,99.90
2017-04-02T07:27:36.084Z,99.90
2017-04-02T07:28:42.209Z,99.90
2017-04-02T07:29:48.233Z,99.90
2017-04-02T07:30:54.350Z,99.90
2017-04-02T07:32:00.643Z,99.90
2017-04-02T07:33:06.556Z,99.90
2017-04-02T07:34:12.409Z,99.90
2017-04-02T07:35:18.452Z,99.90
2017-04-02T07:36:24.408Z,99.90
2017-04-02T07:37:30.777Z,99.90
2017-04-02T07:38:36.724Z,99.90
2017-04-02T07:39:42.752Z,99.90
2017-04-02T07:40:48.823Z,99.90
2017-04-02T07:41:54.884Z,99.90
2017-04-02T07:43:01.605Z,99.90
2017-04-02T07:44:07.739Z,99.90
2017-04-02T07:45:13.788Z,99.90
2017-04-02T07:46:20.579Z,99.90
2017-04-02T07:47:26.437Z,99.90
2017-04-02T07:48:32.566Z,99.90
2017-04-02T07:49:39.480Z,99.90
2017-04-02T07:50:45.449Z,99.90
2017-04-02T07:51:51.620Z,99.90
2017-04-02T07:52:57.584Z,99.90
2017-04-02T07:54:03.845Z,99.90
2017-04-02T07:55:10.642Z,99.90
2017-04-02T07:56:16.751Z,99.90
2017-04-02T07:57:22.873Z,99.90
2017-04-02T07:58:29.142Z,99.90
2017-04-02T07:59:35.517Z,99.90
2017-04-02T08:00:41.591Z,99.90
2017-04-02T08:01:47.730Z,99.90
2017-04-02T08:02:53.853Z,99.90
2017-04-02T08:04:00.694Z,99.90
2017-04-02T08:05:06.976Z,99.90
2017-04-02T08:06:13.767Z,99.90
2017-04-02T08:07:20.893Z,99.90
2017-04-02T08:08:26.984Z,99.90
2017-04-02T08:09:33.001Z,99.90
2017-04-02T08:10:38.937Z,99.90
2017-04-02T08:11:45.064Z,99.90
2017-04-02T08:12:51.227Z,99.90
2017-04-02T08:13:57.259Z,99.90
2017-04-02T08:15:04.042Z,99.90
2017-04-02T08:16:10.273Z,99.90
2017-04-02T08:17:16.190Z,99.90
2017-04-02T08:18:22.237Z,99.90
2017-04-02T08:19:28.277Z,99.90
2017-04-02T08:20:35.011Z,99.90
2017-04-02T08:21:41.239Z,99.90
2017-04-02T08:22:47.164Z,99.90
2017-04-02T08:23:53.156Z,99.90
2017-04-02T08:24:59.137Z,99.90
2017-04-02T08:26:05.065Z,99.90
2017-04-02T08:27:11.259Z,99.90
2017-04-02T08:28:17.169Z,99.90
2017-04-02T08:29:23.248Z,99.90
2017-04-02T08:30:36.077Z,99.90
2017-04-02T08:31:41.982Z,99.90
2017-04-02T08:32:48.897Z,99.90
2017-04-02T08:33:54.896Z,99.90
2017-04-02T08:35:00.962Z,99.90
2017-04-02T08:36:06.899Z,99.90
2017-04-02T08:37:13.213Z,99.90
2017-04-02T08:38:19.493Z,99.90
2017-04-02T08:39:25.637Z,99.90
2017-04-02T08:40:35.383Z,99.90
2017-04-02T08:41:41.884Z,99.90
2017-04-02T08:42:47.991Z,99.90
2017-04-02T08:43:54.057Z,99.90
2017-04-02T08:45:00.503Z,99.90
2017-04-02T08:46:07.600Z,99.90
2017-04-02T08:47:13.664Z,99.90
2017-04-02T08:48:19.632Z,99.90
2017-04-02T08:49:27.844Z,99.90
2017-04-02T08:50:34.027Z,99.90
2017-04-02T08:51:40.073Z,99.90
2017-04-02T08:52:47.754Z,99.90
2017-04-02T08:53:55.399Z,99.90
2017-04-02T08:55:01.620Z,99.90
2017-04-02T08:56:07.572Z,99.90
2017-04-02T08:57:14.333Z,99.90
2017-04-02T08:58:20.404Z,99.90
2017-04-02T08:59:26.471Z,99.90
2017-04-02T09:00:33.015Z,99.90
2017-04-02T09:04:43.464Z,99.90
2017-04-02T09:05:50.337Z,99.90
2017-04-02T09:06:56.480Z,99.90
2017-04-02T09:08:03.273Z,99.90
2017-04-02T09:09:09.356Z,99.90
2017-04-02T09:10:15.414Z,99.90
2017-04-02T09:11:21.704Z,99.90
2017-04-02T09:12:27.946Z,99.90
2017-04-02T09:13:37.304Z,99.90
2017-04-02T09:14:43.401Z,99.90
2017-04-02T09:15:49.425Z,99.90
2017-04-02T09:16:55.644Z,99.90
2017-04-02T09:18:01.645Z,99.90
2017-04-02T09:19:07.991Z,99.90
2017-04-02T09:20:14.629Z,99.90
2017-04-02T09:21:20.682Z,99.90
2017-04-02T09:22:26.661Z,99.90
2017-04-02T09:23:32.864Z,99.90
2017-04-02T09:24:38.790Z,99.90
2017-04-02T09:25:44.885Z,99.90
2017-04-02T09:26:51.027Z,99.90
2017-04-02T09:27:57.065Z,99.90
2017-04-02T09:29:02.976Z,99.90
2017-04-02T09:30:09.074Z,99.90
2017-04-02T09:31:16.274Z,99.90
2017-04-02T09:32:22.332Z,99.90
2017-04-02T09:33:28.399Z,99.90
2017-04-02T09:34:34.387Z,99.90
2017-04-02T09:35:40.428Z,99.90
2017-04-02T09:36:46.351Z,99.90
2017-04-02T09:37:52.439Z,99.90
2017-04-02T09:38:58.772Z,99.90
2017-04-02T09:40:05.796Z,99.90
2017-04-02T09:41:11.837Z,99.90
2017-04-02T09:42:18.033Z,99.90
2017-04-02T09:43:24.368Z,99.90
2017-04-02T09:44:31.930Z,99.90
2017-04-02T09:45:38.703Z,99.90
2017-04-02T09:46:44.900Z,99.90
2017-04-02T09:47:50.931Z,99.90
2017-04-02T09:48:57.004Z,99.90
2017-04-02T09:50:03.374Z,99.90
2017-04-02T09:51:09.325Z,99.90
2017-04-02T09:52:15.486Z,99.90
2017-04-02T09:53:21.868Z,99.90
2017-04-02T09:54:27.911Z,99.90
2017-04-02T09:55:34.856Z,99.90
2017-04-02T09:56:40.736Z,99.90
2017-04-02T09:57:46.683Z,99.90
2017-04-02T09:58:52.660Z,99.90
2017-04-02T09:59:58.791Z,99.90
2017-04-02T10:01:04.887Z,99.90
2017-04-02T10:02:11.029Z,99.90
2017-04-02T10:03:17.707Z,99.90
2017-04-02T10:04:23.720Z,99.90
2017-04-02T10:05:30.065Z,99.90
2017-04-02T10:06:36.192Z,99.90
2017-04-02T10:07:42.276Z,99.90
2017-04-02T10:08:48.186Z,99.90
2017-04-02T10:09:54.108Z,99.90
2017-04-02T10:11:00.222Z,99.90
2017-04-02T10:12:06.283Z,99.90
2017-04-02T10:13:12.293Z,99.90
2017-04-02T10:14:18.353Z,99.90
2017-04-02T10:15:24.300Z,99.90
2017-04-02T10:16:30.281Z,99.90
2017-04-02T10:17:36.504Z,99.90
2017-04-02T10:18:42.677Z,99.90
2017-04-02T10:19:48.713Z,99.90
2017-04-02T10:20:54.839Z,99.90
2017-04-02T10:22:00.906Z,99.90
2017-04-02T10:23:07.048Z,99.90
2017-04-02T10:24:13.074Z,99.90
2017-04-02T10:25:19.212Z,99.90
2017-04-02T10:26:25.132Z,99.90
2017-04-02T10:27:32.196Z,99.90
2017-04-02T10:28:38.553Z,99.90
2017-04-02T10:29:44.808Z,99.90
2017-04-02T10:30:50.987Z,99.90
2017-04-02T10:31:56.888Z,99.90
2017-04-02T10:33:03.186Z,99.90
2017-04-02T10:34:10.138Z,99.90
2017-04-02T10:35:16.899Z,99.90
2017-04-02T10:36:22.864Z,99.90
2017-04-02T10:37:29.005Z,99.90
2017-04-02T10:38:35.115Z,99.90
2017-04-02T10:39:41.147Z,99.90
2017-04-02T10:40:47.808Z,99.90
2017-04-02T10:41:54.472Z,99.90
2017-04-02T10:43:01.363Z,99.90
2017-04-02T10:44:07.425Z,99.90
2017-04-02T10:45:13.557Z,99.90
2017-04-02T10:47:54.512Z,99.90
2017-04-02T10:49:00.597Z,99.90
2017-04-02T10:50:06.624Z,99.90
2017-04-02T10:51:12.737Z,99.90
2017-04-02T10:52:18.701Z,99.90
2017-04-02T10:53:25.242Z,99.90
2017-04-02T10:54:31.327Z,99.90
2017-04-02T10:55:37.396Z,99.90
2017-04-02T10:56:43.453Z,99.90
2017-04-02T10:57:49.573Z,99.90
2017-04-02T10:58:55.558Z,99.90
2017-04-02T11:00:01.541Z,99.90
2017-04-02T11:01:07.810Z,99.90
2017-04-02T11:02:14.168Z,99.90
2017-04-02T11:03:20.204Z,99.90
2017-04-02T11:04:26.224Z,99.90
2017-04-02T11:05:32.390Z,99.90
2017-04-02T11:06:38.386Z,99.90
2017-04-02T11:07:44.576Z,99.90
2017-04-02T11:08:50.533Z,99.90
2017-04-02T11:09:56.548Z,99.90
2017-04-02T11:11:03.201Z,99.90
2017-04-02T11:12:09.246Z,99.90
2017-04-02T11:13:15.320Z,99.90
2017-04-02T11:14:21.332Z,99.90
2017-04-02T11:15:27.305Z,99.90
2017-04-02T11:16:34.340Z,99.90
2017-04-02T11:17:40.437Z,99.90
2017-04-02T11:18:46.629Z,99.90
2017-04-02T11:19:52.585Z,99.90
2017-04-02T11:20:58.671Z,99.90
2017-04-02T11:22:04.725Z,99.90
2017-04-02T11:23:10.737Z,99.90
2017-04-02T11:24:16.839Z,99.90
2017-04-02T11:25:22.791Z,99.90
2017-04-02T11:26:28.949Z,99.90
2017-04-02T11:27:34.923Z,99.90
2017-04-02T11:28:40.905Z,99.90
2017-04-02T11:29:47.211Z,99.90
2017-04-02T11:30:53.188Z,99.90
2017-04-02T11:31:59.168Z,99.90
2017-04-02T11:33:05.163Z,99.90
2017-04-02T11:34:11.172Z,99.90
2017-04-02T11:35:17.374Z,99.90
2017-04-02T11:36:23.433Z,99.90
2017-04-02T11:37:29.471Z,99.90
2017-04-02T11:38:35.557Z,99.90
2017-04-02T11:39:41.586Z,99.90
2017-04-02T11:40:48.387Z,99.90
2017-04-02T11:41:54.333Z,99.90
2017-04-02T11:43:00.380Z,99.90
2017-04-02T11:44:06.324Z,99.90
2017-04-02T11:45:12.365Z,99.90
2017-04-02T11:46:18.394Z,99.90
2017-04-02T11:47:24.530Z,99.90
2017-04-02T11:48:31.656Z,99.90
2017-04-02T11:49:36.811Z,99.90
2017-04-02T11:50:42.887Z,99.90
2017-04-02T11:51:49.006Z,99.90
2017-04-02T11:52:54.996Z,99.90
2017-04-02T11:54:01.004Z,99.90
2017-04-02T11:55:07.174Z,99.90
2017-04-02T11:56:13.992Z,99.90
2017-04-02T11:57:20.333Z,99.90
2017-04-02T11:58:26.450Z,99.90
2017-04-02T11:59:32.527Z,99.90
2017-04-02T12:00:38.521Z,99.90
2017-04-02T12:01:44.524Z,99.90
2017-04-02T12:02:50.783Z,99.90
2017-04-02T12:03:56.709Z,99.90
2017-04-02T12:05:02.741Z,99.90
2017-04-02T12:06:08.895Z,99.90
2017-04-02T12:07:14.828Z,99.90
2017-04-02T12:08:21.124Z,99.90
2017-04-02T12:09:27.180Z,99.90
2017-04-02T12:10:33.207Z,99.90
2017-04-02T12:11:39.358Z,99.90
2017-04-02T12:12:45.284Z,99.90
2017-04-02T12:13:51.359Z,99.90
2017-04-02T12:14:57.252Z,99.90
2017-04-02T12:16:03.360Z,99.90
2017-04-02T12:17:09.331Z,99.90
2017-04-02T12:18:15.345Z,99.90
2017-04-02T12:19:21.436Z,99.90
2017-04-02T12:20:27.485Z,99.90
2017-04-02T12:21:33.400Z,99.90
2017-04-02T12:22:39.442Z,99.90
2017-04-02T12:23:45.288Z,99.90
2017-04-02T12:24:51.248Z,99.90
2017-04-02T12:25:57.429Z,99.90
2017-04-02T12:27:03.260Z,99.90
2017-04-02T12:28:09.252Z,99.90
2017-04-02T12:29:15.198Z,99.90
2017-04-02T12:30:22.024Z,99.90
2017-04-02T12:31:28.049Z,99.90
2017-04-02T12:32:34.089Z,99.90
2017-04-02T12:33:39.982Z,99.90
2017-04-02T12:34:46.119Z,99.90
2017-04-02T12:35:52.431Z,99.90
2017-04-02T12:36:59.167Z,99.90
2017-04-02T12:38:05.404Z,99.90
2017-04-02T12:39:11.437Z,99.90
2017-04-02T12:40:18.233Z,99.90
2017-04-02T12:41:24.268Z,99.90
2017-04-02T12:42:30.353Z,99.90
2017-04-02T12:43:36.423Z,99.50
2017-04-02T12:44:43.283Z,99.60
2017-04-02T12:45:49.263Z,99.80
2017-04-02T12:46:55.348Z,99.90
2017-04-02T12:48:01.320Z,99.90
2017-04-02T12:49:07.427Z,99.90
2017-04-02T12:50:14.153Z,99.90
2017-04-02T12:51:20.303Z,99.90
2017-04-02T12:52:26.521Z,99.90
2017-04-02T12:53:32.616Z,99.90
2017-04-02T12:54:38.708Z,99.90
2017-04-02T12:55:44.935Z,99.90
2017-04-02T12:56:50.907Z,99.90
2017-04-02T12:57:57.406Z,99.90
2017-04-02T12:59:03.461Z,99.90
2017-04-02T13:00:09.456Z,99.90
2017-04-02T13:01:15.625Z,99.90
2017-04-02T13:02:21.622Z,99.90
2017-04-02T13:03:27.841Z,99.90
2017-04-02T13:04:35.046Z,99.90
2017-04-02T13:05:42.854Z,99.40
2017-04-02T13:06:50.016Z,99.30
2017-04-02T13:07:56.076Z,99.70
2017-04-02T13:09:02.216Z,99.30
2017-04-02T13:10:08.156Z,99.90
2017-04-02T13:11:14.184Z,99.90
2017-04-02T13:12:20.286Z,99.90
2017-04-02T13:13:26.507Z,99.90
2017-04-02T13:14:33.380Z,99.80
2017-04-02T13:15:39.475Z,98.80
2017-04-02T13:16:45.378Z,99.00
2017-04-02T13:17:51.434Z,99.90
2017-04-02T13:18:57.428Z,99.90
2017-04-02T13:20:03.679Z,99.90
2017-04-02T13:21:09.683Z,99.90
2017-04-02T13:22:15.841Z,99.90
2017-04-02T13:23:21.918Z,99.90
2017-04-02T13:24:28.170Z,99.90
2017-04-02T13:25:34.552Z,99.90
2017-04-02T13:26:40.723Z,99.90
2017-04-02T13:27:46.850Z,99.90
2017-04-02T13:28:52.808Z,99.90
2017-04-02T13:29:58.991Z,99.90
2017-04-02T13:31:05.088Z,99.10
2017-04-02T13:32:11.000Z,98.20
2017-04-02T13:33:17.943Z,97.80
2017-04-02T13:34:24.134Z,96.90
2017-04-02T13:35:30.210Z,97.70
2017-04-02T13:36:36.565Z,95.90
2017-04-02T13:37:42.506Z,96.00
2017-04-02T13:38:49.460Z,96.40
2017-04-02T13:39:55.461Z,96.50
2017-04-02T13:41:01.342Z,96.60
2017-04-02T13:42:07.557Z,97.10
2017-04-02T13:43:13.702Z,97.40
2017-04-02T13:44:19.681Z,98.30
2017-04-02T13:45:26.373Z,98.90
2017-04-02T13:46:33.131Z,99.30
2017-04-02T13:47:39.085Z,98.70
2017-04-02T13:48:45.124Z,98.70
2017-04-02T13:49:51.248Z,99.10
2017-04-02T13:50:57.142Z,99.70
2017-04-02T13:52:03.107Z,99.40
2017-04-02T13:53:09.525Z,99.60
2017-04-02T13:54:15.557Z,99.90
2017-04-02T13:55:21.924Z,99.90
2017-04-02T13:56:27.968Z,99.90
2017-04-02T13:57:34.101Z,99.90
2017-04-02T13:58:40.439Z,99.90
2017-04-02T13:59:46.492Z,99.90
2017-04-02T14:00:52.572Z,99.80
2017-04-02T14:01:58.745Z,98.20
2017-04-02T14:03:04.981Z,97.90
2017-04-02T14:04:11.110Z,98.00
2017-04-02T14:05:17.154Z,97.00
2017-04-02T14:06:23.176Z,97.10
2017-04-02T14:07:29.413Z,97.80
2017-04-02T14:08:35.496Z,98.60
2017-04-02T14:09:41.432Z,97.80
2017-04-02T14:10:48.264Z,98.20
2017-04-02T14:11:55.228Z,99.00
2017-04-02T14:13:02.264Z,99.50
2017-04-02T14:14:08.524Z,99.90
2017-04-02T14:15:14.845Z,99.90
2017-04-02T14:16:21.144Z,99.60
2017-04-02T14:17:27.120Z,99.30
2017-04-02T14:18:33.191Z,99.90
2017-04-02T14:19:39.281Z,99.30
2017-04-02T14:20:46.240Z,99.40
2017-04-02T14:21:52.146Z,98.90
2017-04-02T14:22:58.133Z,98.30
2017-04-02T14:24:04.037Z,97.50
2017-04-02T14:25:10.101Z,98.30
2017-04-02T14:26:16.127Z,99.00